createdAt,value
2019-04-06T00:00:41.202Z,13.13
2019-04-06T00:03:10.012Z,12.60
2019-04-06T00:05:38.869Z,12.40
2019-04-06T00:08:07.586Z,12.13
2019-04-06T00:10:36.479Z,12.30
2019-04-06T00:13:05.236Z,11.97
2019-04-06T00:15:34.076Z,11.40
2019-04-06T00:18:02.957Z,13.00
2019-04-06T00:20:31.805Z,12.37
2019-04-06T00:23:00.620Z,11.57
2019-04-06T00:25:29.484Z,12.70
2019-04-06T00:27:58.333Z,11.70
2019-04-06T00:30:28.556Z,11.17
2019-04-06T00:33:05.140Z,11.93
2019-04-06T00:35:33.931Z,12.07
2019-04-06T00:38:02.741Z,12.47
2019-04-06T00:40:31.628Z,12.00
2019-04-06T00:43:00.379Z,11.83
2019-04-06T00:45:29.828Z,10.50
2019-04-06T00:47:58.684Z,12.20
2019-04-06T00:50:27.461Z,11.73
2019-04-06T00:52:56.222Z,11.40
2019-04-06T00:55:25.124Z,11.40
2019-04-06T00:57:53.890Z,12.00
2019-04-06T01:00:22.805Z,11.47
2019-04-06T01:02:51.719Z,11.33
2019-04-06T01:05:20.518Z,12.07
2019-04-06T01:07:49.332Z,12.00
2019-04-06T01:10:18.117Z,11.37
2019-04-06T01:12:46.972Z,10.77
2019-04-06T01:15:15.804Z,11.13
2019-04-06T01:17:44.741Z,11.80
2019-04-06T01:20:13.554Z,10.33
2019-04-06T01:22:42.308Z,11.53
2019-04-06T01:25:11.242Z,11.00
2019-04-06T01:27:40.020Z,12.33
2019-04-06T01:30:09.062Z,12.33
2019-04-06T01:32:37.916Z,11.30
2019-04-06T01:35:06.997Z,11.27
2019-04-06T01:37:35.829Z,12.13
2019-04-06T01:40:06.858Z,13.07
2019-04-06T01:42:35.611Z,11.07
2019-04-06T01:45:06.081Z,11.60
2019-04-06T01:47:34.941Z,11.37
2019-04-06T01:50:03.795Z,10.87
2019-04-06T01:52:32.675Z,11.27
2019-04-06T01:55:01.589Z,11.03
2019-04-06T01:57:30.381Z,11.23
2019-04-06T01:59:59.259Z,11.50
2019-04-06T02:02:29.812Z,11.37
2019-04-06T02:04:58.684Z,11.47
2019-04-06T02:07:27.572Z,11.00
2019-04-06T02:09:56.370Z,12.17
2019-04-06T02:12:25.118Z,11.53
2019-04-06T02:14:53.868Z,11.53
2019-04-06T02:17:22.644Z,11.67
2019-04-06T02:19:51.412Z,12.87
2019-04-06T02:22:20.235Z,10.53
2019-04-06T02:24:48.983Z,12.13
2019-04-06T02:27:17.795Z,12.10
2019-04-06T02:29:46.640Z,12.43
2019-04-06T02:32:17.053Z,11.77
2019-04-06T02:34:53.198Z,11.63
2019-04-06T02:37:23.613Z,12.27
2019-04-06T02:39:54.013Z,11.77
2019-04-06T02:42:24.422Z,11.27
2019-04-06T02:44:53.243Z,11.57
2019-04-06T02:47:22.052Z,12.00
2019-04-06T02:49:53.317Z,12.07
2019-04-06T02:52:22.180Z,12.37
2019-04-06T02:54:50.940Z,12.87
2019-04-06T02:57:19.684Z,12.00
2019-04-06T02:59:48.487Z,12.43
2019-04-06T03:02:17.317Z,14.20
2019-04-06T03:04:46.092Z,13.07
2019-04-06T03:07:14.851Z,12.90
2019-04-06T03:09:43.669Z,13.43
2019-04-06T03:12:12.609Z,12.23
2019-04-06T03:14:44.249Z,13.47
2019-04-06T03:17:11.876Z,14.00
2019-04-06T03:19:40.637Z,13.40
2019-04-06T03:22:09.540Z,13.43
2019-04-06T03:24:38.429Z,13.83
2019-04-06T03:27:07.260Z,13.37
2019-04-06T03:29:36.116Z,13.00
2019-04-06T03:32:04.966Z,13.23
2019-04-06T03:34:33.738Z,13.63
2019-04-06T03:37:02.486Z,13.97
2019-04-06T03:39:31.445Z,12.90
2019-04-06T03:42:00.140Z,12.77
2019-04-06T03:44:29.035Z,13.73
2019-04-06T03:46:57.896Z,13.77
2019-04-06T03:49:26.810Z,12.87
2019-04-06T03:51:55.804Z,15.33
2019-04-06T03:54:24.708Z,14.57
2019-04-06T03:56:53.557Z,14.47
2019-04-06T03:59:23.491Z,14.80
2019-04-06T04:01:52.245Z,13.73
2019-04-06T04:04:21.084Z,15.40
2019-04-06T04:06:49.869Z,14.43
2019-04-06T04:09:18.668Z,14.67
2019-04-06T04:11:47.437Z,13.60
2019-04-06T04:14:16.237Z,14.37
2019-04-06T04:16:45.101Z,14.37
2019-04-06T04:19:13.948Z,14.93
2019-04-06T04:21:42.820Z,15.53
2019-04-06T04:24:14.364Z,14.97
2019-04-06T04:26:43.169Z,16.03
2019-04-06T04:29:12.451Z,16.93
2019-04-06T04:31:41.326Z,17.50
2019-04-06T04:34:10.075Z,17.30
2019-04-06T04:36:39.119Z,15.77
2019-04-06T04:39:09.071Z,16.27
2019-04-06T04:41:39.777Z,17.10
2019-04-06T04:44:08.291Z,16.37
2019-04-06T04:46:37.100Z,17.07
2019-04-06T04:49:06.150Z,17.47
2019-04-06T04:51:35.328Z,16.60
2019-04-06T04:54:04.180Z,17.17
2019-04-06T04:56:33.045Z,15.27
2019-04-06T04:59:02.217Z,17.10
2019-04-06T05:01:30.964Z,17.03
2019-04-06T05:03:59.797Z,17.53
2019-04-06T05:06:28.652Z,19.03
2019-04-06T05:08:57.461Z,19.07
2019-04-06T05:11:26.535Z,18.40
2019-04-06T05:14:27.140Z,19.10
2019-04-06T05:16:55.989Z,16.80
2019-04-06T05:19:24.818Z,16.37
2019-04-06T05:21:53.620Z,18.30
2019-04-06T05:24:22.388Z,16.90
2019-04-06T05:26:51.230Z,19.13
2019-04-06T05:29:20.201Z,17.30
2019-04-06T05:31:48.979Z,19.17
2019-04-06T05:34:17.725Z,17.53
2019-04-06T05:36:46.652Z,17.70
2019-04-06T05:39:15.378Z,17.17
2019-04-06T05:41:44.196Z,18.13
2019-04-06T05:44:13.100Z,19.47
2019-04-06T05:46:41.924Z,18.20
2019-04-06T05:49:10.784Z,18.87
2019-04-06T05:51:39.670Z,17.97
2019-04-06T05:54:08.634Z,18.53
2019-04-06T05:56:37.548Z,17.90
2019-04-06T05:59:10.061Z,17.40
2019-04-06T06:01:40.339Z,19.80
2019-04-06T06:04:08.827Z,19.90
2019-04-06T06:06:38.549Z,19.30
2019-04-06T06:09:08.156Z,19.17
2019-04-06T06:11:37.236Z,19.57
2019-04-06T06:14:06.752Z,18.10
2019-04-06T06:16:35.597Z,18.93
2019-04-06T06:19:05.283Z,18.70
2019-04-06T06:21:34.172Z,17.33
2019-04-06T06:24:02.977Z,18.93
2019-04-06T06:26:31.778Z,20.10
2019-04-06T06:29:00.659Z,17.70
2019-04-06T06:31:29.600Z,18.97
2019-04-06T06:33:58.356Z,19.67
2019-04-06T06:36:27.170Z,18.63
2019-04-06T06:38:56.020Z,17.67
2019-04-06T06:41:24.982Z,17.90
2019-04-06T06:43:53.868Z,18.73
2019-04-06T06:46:22.658Z,18.37
2019-04-06T06:48:51.420Z,18.23
2019-04-06T06:51:20.417Z,18.43
2019-04-06T06:53:49.254Z,18.03
2019-04-06T06:56:17.997Z,19.37
2019-04-06T06:58:46.884Z,21.17
2019-04-06T07:01:15.771Z,20.30
2019-04-06T07:03:44.540Z,19.33
2019-04-06T07:06:13.441Z,19.13
2019-04-06T07:08:42.528Z,19.40
2019-04-06T07:11:11.302Z,20.03
2019-04-06T07:13:40.188Z,18.77
2019-04-06T07:16:09.032Z,19.27
2019-04-06T07:18:37.846Z,19.93
2019-04-06T07:21:06.914Z,20.37
2019-04-06T07:23:35.932Z,20.57
2019-04-06T07:26:05.143Z,19.53
2019-04-06T07:28:38.394Z,19.53
2019-04-06T07:31:05.006Z,18.57
2019-04-06T07:33:33.849Z,20.03
2019-04-06T07:36:02.828Z,19.80
2019-04-06T07:38:31.881Z,21.63
2019-04-06T07:41:00.828Z,19.93
2019-04-06T07:43:31.236Z,19.30
2019-04-06T07:46:00.164Z,20.70
2019-04-06T07:48:28.947Z,19.30
2019-04-06T07:50:57.951Z,20.13
2019-04-06T07:53:26.708Z,20.47
2019-04-06T07:56:01.957Z,19.83
2019-04-06T07:58:30.882Z,20.43
2019-04-06T08:00:59.628Z,20.13
2019-04-06T08:03:28.532Z,21.57
2019-04-06T08:05:57.540Z,20.33
2019-04-06T08:08:28.620Z,19.93
2019-04-06T08:10:56.820Z,19.70
2019-04-06T08:13:25.629Z,19.30
2019-04-06T08:15:54.491Z,19.43
2019-04-06T08:18:23.274Z,18.70
2019-04-06T08:20:52.116Z,20.50
2019-04-06T08:23:20.916Z,20.10
2019-04-06T08:25:49.740Z,20.07
2019-04-06T08:28:18.565Z,20.10
2019-04-06T08:30:47.372Z,20.13
2019-04-06T08:33:16.302Z,17.63
2019-04-06T08:35:45.164Z,19.67
2019-04-06T08:38:14.010Z,21.07
2019-04-06T08:40:42.893Z,19.57
2019-04-06T08:43:11.764Z,20.63
2019-04-06T08:45:40.813Z,19.73
2019-04-06T08:48:09.699Z,19.47
2019-04-06T08:50:38.450Z,18.40
2019-04-06T08:53:07.409Z,20.77
2019-04-06T08:55:36.252Z,19.80
2019-04-06T08:58:05.082Z,18.23
2019-04-06T09:00:33.908Z,20.17
2019-04-06T09:03:02.724Z,20.37
2019-04-06T09:05:31.555Z,19.67
2019-04-06T09:08:00.411Z,20.57
2019-04-06T09:10:29.244Z,18.60
2019-04-06T09:12:58.361Z,20.07
2019-04-06T09:15:27.210Z,21.47
2019-04-06T09:17:56.310Z,19.57
2019-04-06T09:20:25.115Z,18.43
2019-04-06T09:22:53.939Z,17.80
2019-04-06T09:25:22.834Z,18.80
2019-04-06T09:27:51.676Z,18.40
2019-04-06T09:30:20.475Z,18.90
2019-04-06T09:32:49.284Z,18.23
2019-04-06T09:35:18.068Z,17.57
2019-04-06T09:37:46.859Z,18.60
2019-04-06T09:40:17.306Z,18.87
2019-04-06T09:42:46.382Z,17.90
2019-04-06T09:45:32.051Z,17.90
2019-04-06T09:48:08.220Z,16.93
2019-04-06T09:50:43.026Z,18.10
2019-04-06T09:53:18.956Z,17.73
2019-04-06T09:55:49.493Z,16.27
2019-04-06T09:58:36.214Z,16.90
2019-04-06T10:01:21.820Z,16.90
2019-04-06T10:03:58.236Z,16.67
2019-04-06T10:06:34.970Z,14.77
2019-04-06T10:09:06.868Z,17.83
2019-04-06T10:11:43.020Z,16.17
2019-04-06T10:14:31.667Z,17.77
2019-04-06T10:17:07.686Z,17.00
2019-04-06T10:19:47.154Z,16.40
2019-04-06T10:22:23.364Z,16.47
2019-04-06T10:24:53.762Z,16.73
2019-04-06T10:27:33.143Z,15.83
2019-04-06T10:30:21.796Z,16.37
2019-04-06T10:32:57.980Z,15.90
2019-04-06T10:35:34.019Z,17.63
2019-04-06T10:38:20.564Z,17.63
2019-04-06T10:40:57.096Z,15.57
2019-04-06T10:43:36.838Z,16.60
2019-04-06T10:46:07.282Z,15.23
2019-04-06T10:48:38.003Z,16.27
2019-04-06T10:51:14.378Z,15.87
2019-04-06T10:53:53.548Z,15.40
2019-04-06T10:56:40.324Z,14.80
2019-04-06T10:59:19.479Z,14.17
2019-04-06T11:01:50.030Z,14.20
2019-04-06T11:04:20.488Z,14.43
2019-04-06T11:06:56.787Z,13.10
2019-04-06T11:09:27.189Z,13.73
2019-04-06T11:11:57.588Z,13.80
2019-04-06T11:14:31.092Z,14.00
2019-04-06T11:17:01.628Z,13.73
2019-04-06T11:19:34.954Z,15.13
2019-04-06T11:22:17.522Z,13.13
2019-04-06T11:24:57.053Z,13.73
2019-04-06T11:30:20.828Z,14.77
2019-04-06T11:33:06.342Z,13.20
2019-04-06T11:35:42.659Z,12.93
2019-04-06T11:38:29.340Z,13.67
2019-04-06T11:40:59.909Z,12.13
2019-04-06T11:43:45.387Z,12.30
2019-04-06T11:46:15.810Z,12.23
2019-04-06T11:49:04.430Z,13.03
2019-04-06T11:51:35.192Z,13.00
2019-04-06T11:54:05.853Z,13.17
2019-04-06T11:56:36.275Z,14.20
2019-04-06T11:59:09.799Z,12.23
2019-04-06T12:01:43.166Z,12.30
2019-04-06T12:04:16.794Z,12.43
2019-04-06T12:07:00.799Z,11.67
2019-04-06T12:09:37.062Z,12.13
2019-04-06T12:12:07.509Z,11.30
2019-04-06T12:14:46.612Z,12.20
2019-04-06T12:17:17.029Z,11.10
2019-04-06T12:19:47.388Z,12.03
2019-04-06T12:22:17.860Z,10.83
2019-04-06T12:25:04.632Z,11.30
2019-04-06T12:27:44.283Z,10.87
2019-04-06T12:30:37.228Z,12.37
2019-04-06T12:33:03.237Z,12.47
2019-04-06T12:35:48.825Z,11.93
2019-04-06T12:38:19.362Z,11.73
2019-04-06T12:41:06.374Z,12.37
2019-04-06T12:43:39.647Z,12.07
2019-04-06T12:46:16.010Z,12.53
2019-04-06T12:48:52.675Z,11.07
2019-04-06T12:51:26.234Z,11.37
2019-04-06T12:53:56.692Z,12.73
2019-04-06T12:56:30.073Z,11.53
2019-04-06T12:59:15.588Z,11.00
2019-04-06T13:02:04.210Z,10.10
2019-04-06T13:04:51.183Z,11.63
2019-04-06T13:07:27.380Z,9.73
2019-04-06T13:10:07.341Z,10.47
2019-04-06T13:12:56.184Z,11.23
2019-04-06T13:15:32.644Z,10.20
2019-04-06T13:18:05.946Z,10.60
2019-04-06T13:20:42.352Z,10.67
2019-04-06T13:23:25.189Z,10.13
2019-04-06T13:26:12.317Z,9.63
2019-04-06T13:28:42.699Z,9.57
2019-04-06T13:31:13.140Z,10.13
2019-04-06T13:33:46.603Z,9.07
2019-04-06T13:36:33.364Z,9.80
2019-04-06T13:39:03.824Z,8.37
2019-04-06T13:41:50.644Z,8.93
2019-04-06T13:44:21.084Z,9.60
2019-04-06T13:46:51.569Z,9.50
2019-04-06T13:49:22.382Z,9.83
2019-04-06T13:51:52.860Z,9.00
2019-04-06T13:54:34.818Z,9.17
2019-04-06T13:57:05.252Z,10.73
2019-04-06T13:59:41.332Z,8.73
2019-04-06T14:02:18.533Z,8.57
2019-04-06T14:04:57.675Z,9.20
2019-04-06T14:07:28.133Z,8.50
2019-04-06T14:10:10.421Z,10.10
2019-04-06T14:12:58.832Z,9.17
2019-04-06T14:15:45.650Z,8.33
2019-04-06T14:18:19.165Z,8.97
2019-04-06T14:20:52.586Z,8.40
2019-04-06T14:23:28.963Z,8.63
2019-04-06T14:26:05.467Z,8.97
2019-04-06T14:28:38.630Z,8.63
2019-04-06T14:31:11.566Z,8.37
2019-04-06T14:33:47.781Z,7.77
2019-04-06T14:36:23.746Z,7.37
2019-04-06T14:39:09.087Z,7.80
2019-04-06T14:41:54.452Z,8.37
2019-04-06T14:44:27.730Z,8.67
2019-04-06T14:47:06.644Z,8.83
2019-04-06T14:49:45.631Z,8.17
2019-04-06T14:52:16.054Z,7.87
2019-04-06T14:54:49.156Z,9.63
2019-04-06T14:57:22.596Z,9.87
2019-04-06T15:00:05.518Z,8.03
2019-04-06T15:02:35.951Z,9.13
2019-04-06T15:05:23.261Z,9.37
2019-04-06T15:08:05.908Z,9.33
2019-04-06T15:10:52.892Z,9.03
2019-04-06T15:13:28.868Z,8.60
2019-04-06T15:16:02.505Z,7.77
2019-04-06T15:18:33.084Z,8.23
2019-04-06T15:21:18.790Z,8.50
2019-04-06T15:24:07.387Z,8.87
2019-04-06T15:26:40.889Z,8.03
2019-04-06T15:29:23.516Z,8.43
2019-04-06T15:31:59.934Z,8.63
2019-04-06T15:34:30.365Z,8.50
2019-04-06T15:37:09.630Z,8.83
2019-04-06T15:39:45.843Z,8.53
2019-04-06T15:42:16.366Z,9.30
2019-04-06T15:44:58.742Z,7.83
2019-04-06T15:47:34.815Z,9.60
2019-04-06T15:50:22.122Z,8.83
2019-04-06T15:53:05.136Z,9.03
2019-04-06T15:55:38.483Z,8.30
2019-04-06T15:58:09.448Z,8.10
2019-04-06T16:00:42.556Z,9.03
2019-04-06T16:03:18.897Z,8.53
2019-04-06T16:05:49.284Z,8.07
2019-04-06T16:08:36.020Z,7.67
2019-04-06T16:11:23.570Z,8.00
2019-04-06T16:14:00.429Z,7.07
2019-04-06T16:16:42.562Z,8.37
2019-04-06T16:19:18.868Z,8.37
2019-04-06T16:22:01.243Z,7.87
2019-04-06T16:24:34.643Z,7.60
2019-04-06T16:27:10.773Z,7.60
2019-04-06T16:29:41.262Z,8.17
2019-04-06T16:32:30.982Z,6.83
2019-04-06T16:35:08.732Z,8.23
2019-04-06T16:37:47.997Z,7.43
2019-04-06T16:40:24.606Z,8.23
2019-04-06T16:43:11.173Z,8.03
2019-04-06T16:45:41.644Z,8.53
2019-04-06T16:48:18.360Z,8.00
2019-04-06T16:51:05.308Z,6.93
2019-04-06T16:53:47.787Z,7.80
2019-04-06T16:56:21.116Z,8.20
2019-04-06T16:58:54.071Z,7.77
2019-04-06T17:01:24.501Z,7.63
2019-04-06T17:04:03.717Z,7.63
2019-04-06T17:06:46.176Z,7.90
2019-04-06T17:09:16.638Z,7.60
2019-04-06T17:11:59.258Z,8.20
2019-04-06T17:14:45.847Z,7.80
2019-04-06T17:17:22.104Z,7.77
2019-04-06T17:19:58.514Z,8.50
2019-04-06T17:22:34.756Z,7.67
2019-04-06T17:25:07.916Z,7.67
2019-04-06T17:27:38.339Z,7.87
2019-04-06T17:30:15.695Z,7.37
2019-04-06T17:32:48.981Z,8.13
2019-04-06T17:35:22.317Z,7.80
2019-04-06T17:37:52.780Z,9.30
2019-04-06T17:40:36.198Z,8.07
2019-04-06T17:43:23.918Z,8.93
2019-04-06T17:46:03.351Z,8.17
2019-04-06T17:48:34.002Z,9.20
2019-04-06T17:51:04.745Z,7.60
2019-04-06T17:53:41.236Z,8.73
2019-04-06T17:56:27.717Z,8.67
2019-04-06T17:59:07.389Z,10.70
2019-04-06T18:01:49.831Z,10.07
2019-04-06T18:04:36.022Z,11.30
2019-04-06T18:07:09.355Z,11.27
2019-04-06T18:09:40.077Z,9.83
2019-04-06T18:12:10.513Z,10.30
2019-04-06T18:14:39.538Z,9.10
2019-04-06T18:17:08.870Z,8.50
2019-04-06T18:19:38.302Z,9.00
2019-04-06T18:22:07.204Z,9.03
2019-04-06T18:24:36.731Z,9.30
2019-04-06T18:27:05.979Z,9.87
2019-04-06T18:29:35.353Z,8.70
2019-04-06T18:32:11.523Z,8.90
2019-04-06T18:34:40.402Z,8.73
2019-04-06T18:37:13.669Z,8.43
2019-04-06T18:39:42.584Z,8.70
2019-04-06T18:42:11.790Z,9.67
2019-04-06T18:44:40.856Z,9.20
2019-04-06T18:47:09.981Z,9.40
2019-04-06T18:49:38.860Z,10.00
2019-04-06T18:52:07.654Z,8.77
2019-04-06T18:54:37.001Z,8.57
2019-04-06T18:57:06.130Z,9.10
2019-04-06T18:59:34.990Z,8.97
2019-04-06T19:02:04.482Z,9.07
2019-04-06T19:04:33.962Z,9.60
2019-04-06T19:07:03.998Z,9.27
2019-04-06T19:09:33.118Z,8.90
2019-04-06T19:12:02.057Z,8.10
2019-04-06T19:14:31.590Z,9.67
2019-04-06T19:17:00.939Z,9.63
2019-04-06T19:19:29.820Z,8.70
2019-04-06T19:21:59.064Z,8.37
2019-04-06T19:24:28.059Z,10.07
2019-04-06T19:26:56.973Z,8.90
2019-04-06T19:29:26.500Z,9.77
2019-04-06T19:31:57.513Z,10.33
2019-04-06T19:34:26.031Z,10.23
2019-04-06T19:36:54.828Z,9.47
2019-04-06T19:39:24.141Z,10.20
2019-04-06T19:41:53.026Z,10.07
2019-04-06T19:44:21.897Z,9.47
2019-04-06T19:46:51.196Z,9.87
2019-04-06T19:49:20.519Z,10.13
2019-04-06T19:51:50.868Z,9.67
2019-04-06T19:54:19.821Z,8.97
2019-04-06T19:56:48.631Z,10.53
2019-04-06T19:59:17.410Z,8.77
2019-04-06T20:01:46.268Z,11.03
2019-04-06T20:04:16.086Z,11.23
2019-04-06T20:06:45.519Z,10.03
2019-04-06T20:09:15.056Z,11.10
2019-04-06T20:11:43.960Z,10.43
2019-04-06T20:14:12.926Z,10.43
2019-04-06T20:16:41.935Z,10.87
2019-04-06T20:19:10.965Z,10.97
2019-04-06T20:21:40.016Z,10.67
2019-04-06T20:24:08.892Z,11.00
2019-04-06T20:26:38.357Z,12.07
2019-04-06T20:29:07.162Z,11.70
2019-04-06T20:31:36.228Z,11.93
2019-04-06T20:34:05.116Z,12.00
2019-04-06T20:36:34.144Z,11.50
2019-04-06T20:39:04.602Z,11.73
2019-04-06T20:41:33.473Z,11.57
2019-04-06T20:44:02.316Z,11.93
2019-04-06T20:46:31.203Z,11.27
2019-04-06T20:49:00.136Z,11.83
2019-04-06T20:51:29.182Z,11.30
2019-04-06T20:53:58.140Z,11.67
2019-04-06T20:56:27.231Z,11.33
2019-04-06T20:58:56.552Z,11.57
2019-04-06T21:01:25.540Z,11.03
2019-04-06T21:04:00.869Z,11.60
2019-04-06T21:06:24.876Z,11.87
2019-04-06T21:08:53.851Z,12.03
2019-04-06T21:11:23.203Z,12.53
2019-04-06T21:13:52.078Z,10.60
2019-04-06T21:16:20.861Z,10.73
2019-04-06T21:18:49.819Z,10.60
2019-04-06T21:21:18.943Z,11.70
2019-04-06T21:23:48.474Z,10.83
2019-04-06T21:26:17.347Z,11.27
2019-04-06T21:28:46.556Z,11.90
2019-04-06T21:31:15.530Z,10.33
2019-04-06T21:33:45.841Z,11.03
2019-04-06T21:36:15.210Z,10.93
2019-04-06T21:38:44.553Z,11.77
2019-04-06T21:41:13.734Z,11.20
2019-04-06T21:43:42.599Z,10.90
2019-04-06T21:46:11.403Z,10.97
2019-04-06T21:48:40.337Z,11.10
2019-04-06T21:51:09.170Z,12.23
2019-04-06T21:53:37.963Z,11.40
2019-04-06T21:56:08.258Z,11.93
2019-04-06T21:58:37.268Z,11.70
2019-04-06T22:01:08.216Z,10.60
2019-04-06T22:03:37.030Z,10.90
2019-04-06T22:06:07.988Z,11.50
2019-04-06T22:08:37.340Z,11.77
2019-04-06T22:11:06.290Z,12.17
2019-04-06T22:13:35.434Z,10.13
2019-04-06T22:16:04.324Z,10.27
2019-04-06T22:18:33.140Z,10.77
2019-04-06T22:21:02.233Z,10.97
2019-04-06T22:23:41.085Z,11.73
2019-04-06T22:26:01.789Z,11.37
2019-04-06T22:28:31.107Z,11.57
2019-04-06T22:30:59.994Z,10.40
2019-04-06T22:33:28.836Z,11.73
2019-04-06T22:35:57.687Z,11.50
2019-04-06T22:38:27.098Z,12.60
2019-04-06T22:40:56.090Z,11.23
2019-04-06T22:43:25.007Z,12.17
2019-04-06T22:45:53.870Z,12.70
2019-04-06T22:48:23.089Z,11.53
2019-04-06T22:50:52.403Z,10.80
2019-04-06T22:53:21.422Z,10.63
2019-04-06T22:55:50.627Z,10.43
2019-04-06T22:58:19.702Z,10.97
2019-04-06T23:00:50.468Z,10.80
2019-04-06T23:03:29.661Z,11.33
2019-04-06T23:06:00.552Z,10.30
2019-04-06T23:08:29.964Z,10.43
2019-04-06T23:10:58.690Z,11.63
2019-04-06T23:13:27.914Z,10.40
2019-04-06T23:15:56.822Z,11.07
2019-04-06T23:18:25.768Z,10.47
2019-04-06T23:20:54.651Z,10.50
2019-04-06T23:23:23.446Z,10.53
2019-04-06T23:25:52.170Z,10.67
2019-04-06T23:28:21.683Z,11.40
2019-04-06T23:30:50.491Z,11.77
2019-04-06T23:33:19.323Z,11.07
2019-04-06T23:35:48.204Z,10.93
2019-04-06T23:38:16.955Z,11.53
2019-04-06T23:40:45.706Z,11.17
2019-04-06T23:43:14.936Z,11.23
2019-04-06T23:45:43.790Z,11.20
2019-04-06T23:48:12.570Z,11.80
2019-04-06T23:50:41.380Z,11.00
2019-04-06T23:53:10.195Z,11.67
2019-04-06T23:55:38.988Z,11.13
2019-04-06T23:58:08.380Z,12.13
